createdAt,value
2022-09-09T00:01:52.297Z,3.38
2022-09-09T00:04:21.915Z,3.53
2022-09-09T00:06:51.313Z,4.38
2022-09-09T00:09:18.991Z,5.60
2022-09-09T00:12:09.526Z,4.80
2022-09-09T00:14:40.394Z,3.60
2022-09-09T00:17:13.167Z,2.70
2022-09-09T00:19:46.625Z,2.70
2022-09-09T00:22:14.216Z,2.30
2022-09-09T00:24:47.030Z,1.80
2022-09-09T00:27:19.631Z,2.10
2022-09-09T00:29:48.303Z,1.67
2022-09-09T00:32:17.184Z,1.50
2022-09-09T00:35:04.340Z,1.75
2022-09-09T00:37:36.035Z,1.90
2022-09-09T00:40:07.873Z,1.80
2022-09-09T00:42:41.233Z,1.60
2022-09-09T00:45:29.955Z,1.85
2022-09-09T00:47:57.894Z,1.90
2022-09-09T00:50:44.558Z,2.00
2022-09-09T00:53:27.323Z,1.90
2022-09-09T00:55:59.912Z,2.00
2022-09-09T00:58:28.434Z,2.10
2022-09-09T01:01:14.131Z,1.90
2022-09-09T01:03:49.927Z,2.30
2022-09-09T01:06:32.982Z,1.92
2022-09-09T01:09:09.070Z,1.83
2022-09-09T01:11:54.064Z,1.70
2022-09-09T01:14:36.102Z,1.92
2022-09-09T01:17:06.556Z,2.47
2022-09-09T01:19:45.574Z,1.77
2022-09-09T01:22:32.489Z,1.67
2022-09-09T01:25:09.187Z,2.20
2022-09-09T01:27:53.678Z,2.03
2022-09-09T01:30:20.343Z,2.22
2022-09-09T01:32:49.251Z,1.90
2022-09-09T01:35:28.784Z,1.98
2022-09-09T01:37:55.455Z,2.03
2022-09-09T01:40:22.034Z,1.70
2022-09-09T01:42:49.474Z,1.42
2022-09-09T01:45:16.235Z,1.77
2022-09-09T01:47:42.925Z,1.67
2022-09-09T01:50:25.767Z,2.08
2022-09-09T01:52:56.989Z,1.85
2022-09-09T01:55:30.791Z,1.80
2022-09-09T01:58:03.435Z,1.90
2022-09-09T02:00:32.847Z,1.80
2022-09-09T02:03:12.182Z,2.13
2022-09-09T02:06:06.421Z,1.65
2022-09-09T02:08:40.841Z,1.73
2022-09-09T02:11:14.156Z,1.95
2022-09-09T02:13:46.175Z,1.75
2022-09-09T02:16:26.233Z,2.13
2022-09-09T02:19:27.757Z,2.03
2022-09-09T02:22:06.899Z,1.80
2022-09-09T02:24:38.204Z,1.83
2022-09-09T02:27:23.039Z,1.80
2022-09-09T02:29:51.541Z,1.80
2022-09-09T02:32:24.449Z,1.75
2022-09-09T02:34:55.099Z,1.58
2022-09-09T02:37:24.471Z,2.30
2022-09-09T02:39:53.143Z,1.90
2022-09-09T02:42:21.844Z,1.88
2022-09-09T02:44:49.145Z,1.83
2022-09-09T02:47:25.358Z,1.63
2022-09-09T02:50:12.157Z,1.65
2022-09-09T02:52:42.269Z,1.55
2022-09-09T02:55:19.036Z,1.60
2022-09-09T02:57:48.499Z,1.40
2022-09-09T03:00:16.875Z,1.52
2022-09-09T03:02:46.317Z,1.63
2022-09-09T03:05:14.130Z,2.03
2022-09-09T03:07:41.185Z,1.60
2022-09-09T03:10:09.143Z,1.70
2022-09-09T03:12:36.042Z,1.77
2022-09-09T03:15:03.329Z,1.65
2022-09-09T03:17:29.777Z,1.60
2022-09-09T03:19:58.744Z,1.60
2022-09-09T03:22:26.285Z,1.75
2022-09-09T03:24:53.041Z,1.90
2022-09-09T03:27:20.434Z,1.80
2022-09-09T03:29:47.513Z,1.70
2022-09-09T03:32:19.938Z,1.42
2022-09-09T03:34:50.524Z,1.92
2022-09-09T03:37:18.603Z,1.60
2022-09-09T03:39:45.580Z,1.88
2022-09-09T03:42:15.048Z,2.20
2022-09-09T03:44:42.855Z,2.00
2022-09-09T03:47:09.272Z,1.73
2022-09-09T03:49:36.277Z,2.00
2022-09-09T03:52:02.920Z,1.90
2022-09-09T03:54:29.581Z,2.10
2022-09-09T03:56:56.383Z,2.08
2022-09-09T03:59:24.034Z,2.60
2022-09-09T04:01:50.466Z,3.30
2022-09-09T04:04:16.961Z,30.90
2022-09-09T04:06:43.375Z,33.00
2022-09-09T04:09:09.917Z,31.67
2022-09-09T04:11:37.871Z,19.52
2022-09-09T04:14:06.892Z,6.50
2022-09-09T04:16:34.042Z,4.60
2022-09-09T04:19:01.032Z,3.35
2022-09-09T04:21:27.420Z,2.20
2022-09-09T04:23:54.320Z,2.60
2022-09-09T04:26:21.135Z,2.10
2022-09-09T04:28:47.898Z,2.10
2022-09-09T04:31:21.157Z,2.25
2022-09-09T04:33:49.104Z,2.72
2022-09-09T04:36:16.369Z,2.45
2022-09-09T04:38:42.945Z,2.45
2022-09-09T04:41:12.062Z,3.55
2022-09-09T04:43:41.356Z,3.30
2022-09-09T04:46:10.014Z,2.70
2022-09-09T04:48:36.582Z,2.42
2022-09-09T04:51:07.931Z,2.30
2022-09-09T04:53:39.402Z,2.50
2022-09-09T04:56:08.315Z,2.70
2022-09-09T04:58:39.829Z,2.08
2022-09-09T05:01:10.621Z,2.20
2022-09-09T05:03:39.612Z,2.00
2022-09-09T05:06:11.099Z,2.25
2022-09-09T05:08:38.507Z,1.70
2022-09-09T05:11:05.700Z,2.00
2022-09-09T05:13:32.922Z,2.15
2022-09-09T05:15:59.923Z,2.10
2022-09-09T05:18:26.615Z,2.28
2022-09-09T05:20:53.178Z,2.28
2022-09-09T05:23:19.732Z,2.20
2022-09-09T05:25:55.031Z,2.95
2022-09-09T05:28:21.559Z,2.38
2022-09-09T05:30:55.735Z,2.45
2022-09-09T05:33:22.163Z,2.22
2022-09-09T05:35:49.871Z,2.65
2022-09-09T05:38:19.088Z,2.53
2022-09-09T05:40:51.040Z,2.50
2022-09-09T05:43:17.467Z,2.67
2022-09-09T05:45:43.894Z,2.65
2022-09-09T05:48:10.378Z,2.35
2022-09-09T05:50:36.959Z,2.47
2022-09-09T05:53:04.545Z,2.40
2022-09-09T05:55:32.110Z,1.90
2022-09-09T05:57:58.586Z,2.17
2022-09-09T06:00:27.171Z,2.40
2022-09-09T06:02:53.903Z,2.42
2022-09-09T06:05:23.849Z,2.40
2022-09-09T06:07:53.194Z,2.70
2022-09-09T06:10:20.235Z,2.22
2022-09-09T06:12:46.725Z,1.92
2022-09-09T06:15:13.298Z,2.17
2022-09-09T06:17:39.896Z,1.90
2022-09-09T06:20:10.186Z,2.17
2022-09-09T06:22:36.696Z,2.45
2022-09-09T06:25:04.933Z,1.88
2022-09-09T06:27:31.866Z,1.75
2022-09-09T06:29:59.700Z,2.35
2022-09-09T06:32:29.042Z,2.10
2022-09-09T06:34:55.516Z,1.70
2022-09-09T06:37:22.146Z,1.88
2022-09-09T06:39:50.342Z,1.42
2022-09-09T06:42:17.129Z,1.65
2022-09-09T06:44:51.640Z,1.65
2022-09-09T06:47:44.364Z,1.40
2022-09-09T06:50:11.990Z,1.65
2022-09-09T06:52:39.491Z,1.85
2022-09-09T06:55:09.168Z,1.35
2022-09-09T06:57:37.893Z,1.77
2022-09-09T07:00:09.634Z,1.50
2022-09-09T07:02:40.170Z,1.35
2022-09-09T07:05:09.449Z,1.45
2022-09-09T07:07:36.400Z,1.95
2022-09-09T07:10:05.073Z,1.10
2022-09-09T07:12:31.636Z,1.35
2022-09-09T07:14:59.959Z,1.75
2022-09-09T07:17:26.460Z,1.40
2022-09-09T07:19:53.676Z,1.17
2022-09-09T07:22:21.261Z,1.35
2022-09-09T07:24:47.919Z,1.65
2022-09-09T07:27:15.149Z,1.30
2022-09-09T07:29:42.383Z,1.40
2022-09-09T07:32:09.934Z,1.38
2022-09-09T07:34:38.209Z,1.85
2022-09-09T07:37:06.859Z,1.67
2022-09-09T07:39:35.144Z,1.45
2022-09-09T07:42:01.884Z,1.58
2022-09-09T07:44:29.084Z,1.65
2022-09-09T07:47:03.197Z,1.58
2022-09-09T07:49:37.413Z,1.40
2022-09-09T07:54:33.818Z,2.17
2022-09-09T07:57:06.743Z,1.38
2022-09-09T07:59:35.802Z,1.40
2022-09-09T08:02:06.360Z,1.30
2022-09-09T08:04:35.823Z,1.40
2022-09-09T08:07:04.434Z,1.30
2022-09-09T08:09:37.041Z,1.48
2022-09-09T08:12:09.958Z,1.70
2022-09-09T08:14:36.758Z,1.52
2022-09-09T08:17:03.626Z,1.23
2022-09-09T08:19:34.935Z,1.60
2022-09-09T08:22:02.853Z,1.52
2022-09-09T08:24:30.263Z,1.77
2022-09-09T08:26:59.293Z,1.48
2022-09-09T08:29:28.066Z,1.48
2022-09-09T08:31:55.862Z,1.30
2022-09-09T08:34:22.848Z,1.50
2022-09-09T08:36:51.330Z,1.77
2022-09-09T08:39:21.685Z,1.35
2022-09-09T08:42:08.647Z,2.20
2022-09-09T08:44:48.847Z,1.63
2022-09-09T08:47:19.405Z,1.23
2022-09-09T08:50:04.409Z,1.55
2022-09-09T08:52:33.870Z,1.95
2022-09-09T08:55:22.432Z,1.75
2022-09-09T08:57:57.061Z,1.52
2022-09-09T09:00:30.123Z,1.85
2022-09-09T09:03:07.946Z,1.38
2022-09-09T09:05:59.042Z,1.10
2022-09-09T09:08:25.528Z,1.98
2022-09-09T09:10:54.821Z,1.77
2022-09-09T09:13:44.245Z,1.60
2022-09-09T09:16:16.530Z,1.42
2022-09-09T09:18:43.976Z,1.10
2022-09-09T09:21:13.651Z,1.77
2022-09-09T09:24:04.927Z,1.30
2022-09-09T09:26:34.533Z,1.20
2022-09-09T09:29:06.029Z,1.63
2022-09-09T09:31:35.488Z,1.25
2022-09-09T09:34:04.714Z,1.17
2022-09-09T09:36:55.221Z,1.48
2022-09-09T09:42:28.082Z,1.08
2022-09-09T09:44:56.745Z,1.38
2022-09-09T09:47:24.424Z,1.33
2022-09-09T09:50:20.400Z,1.30
2022-09-09T09:52:56.979Z,1.27
2022-09-09T09:55:25.454Z,1.25
2022-09-09T09:57:52.955Z,1.20
2022-09-09T10:00:24.296Z,1.50
2022-09-09T10:03:21.334Z,1.58
2022-09-09T10:05:48.919Z,1.40
2022-09-09T10:08:21.745Z,1.35
2022-09-09T10:10:57.461Z,1.10
2022-09-09T10:13:29.439Z,1.10
2022-09-09T10:16:08.376Z,1.25
2022-09-09T10:18:42.046Z,1.15
2022-09-09T10:21:11.946Z,1.05
2022-09-09T10:23:47.490Z,0.95
2022-09-09T10:26:29.276Z,0.98
2022-09-09T10:29:14.469Z,1.10
2022-09-09T10:31:57.771Z,1.00
2022-09-09T10:34:31.609Z,1.27
2022-09-09T10:36:59.335Z,1.10
2022-09-09T10:39:40.718Z,1.10
2022-09-09T10:42:11.681Z,1.17
2022-09-09T10:44:42.689Z,1.13
2022-09-09T10:47:28.241Z,1.10
2022-09-09T10:50:13.609Z,1.13
2022-09-09T10:52:55.667Z,0.93
2022-09-09T10:55:29.935Z,1.00
2022-09-09T10:57:59.066Z,0.82
2022-09-09T11:00:28.318Z,0.90
2022-09-09T11:03:19.241Z,0.85
2022-09-09T11:05:48.656Z,1.05
2022-09-09T11:08:21.065Z,1.00
2022-09-09T11:11:04.675Z,1.10
2022-09-09T11:13:44.949Z,0.80
2022-09-09T11:16:22.032Z,0.57
2022-09-09T11:18:48.721Z,0.88
2022-09-09T11:21:20.011Z,1.02
2022-09-09T11:23:50.420Z,0.98
2022-09-09T11:26:19.789Z,1.20
2022-09-09T11:28:59.497Z,0.95
2022-09-09T11:31:32.094Z,1.13
2022-09-09T11:34:17.597Z,0.90
2022-09-09T11:36:43.989Z,1.08
2022-09-09T11:39:22.595Z,1.08
2022-09-09T11:41:49.166Z,1.00
2022-09-09T11:44:24.906Z,1.45
2022-09-09T11:46:52.979Z,0.90
2022-09-09T11:49:42.873Z,0.90
2022-09-09T11:52:15.143Z,0.60
2022-09-09T11:54:49.102Z,1.10
2022-09-09T11:57:35.788Z,0.80
2022-09-09T12:00:06.249Z,0.90
2022-09-09T12:02:52.782Z,0.77
2022-09-09T12:05:22.135Z,0.90
2022-09-09T12:07:54.897Z,1.00
2022-09-09T12:10:24.052Z,1.10
2022-09-09T12:12:50.589Z,1.45
2022-09-09T12:15:17.206Z,1.38
2022-09-09T12:17:47.760Z,1.52
2022-09-09T12:20:14.449Z,1.60
2022-09-09T12:22:55.764Z,1.38
2022-09-09T12:25:27.691Z,1.70
2022-09-09T12:28:03.253Z,1.80
2022-09-09T12:30:33.017Z,2.03
2022-09-09T12:33:03.776Z,1.73
2022-09-09T12:35:32.078Z,1.13
2022-09-09T12:38:03.376Z,1.50
2022-09-09T12:40:32.532Z,1.58
2022-09-09T12:43:02.663Z,1.50
2022-09-09T12:45:33.317Z,1.75
2022-09-09T12:47:59.712Z,1.30
2022-09-09T12:50:27.351Z,1.45
2022-09-09T12:52:55.270Z,1.50
2022-09-09T12:55:28.360Z,1.23
2022-09-09T12:57:54.956Z,1.17
2022-09-09T13:00:23.796Z,3.50
2022-09-09T13:02:53.228Z,3.92
2022-09-09T13:05:24.534Z,3.58
2022-09-09T13:07:51.638Z,2.20
2022-09-09T13:10:36.662Z,2.80
2022-09-09T13:13:17.112Z,2.28
2022-09-09T13:15:50.306Z,2.35
2022-09-09T13:18:18.313Z,2.67
2022-09-09T13:20:51.062Z,3.13
2022-09-09T13:23:20.737Z,3.50
2022-09-09T13:26:01.004Z,2.85
2022-09-09T13:28:33.563Z,3.63
2022-09-09T13:31:03.335Z,3.35
2022-09-09T13:33:38.264Z,2.83
2022-09-09T13:36:09.077Z,3.90
2022-09-09T13:38:52.300Z,3.40
2022-09-09T13:41:26.148Z,4.53
2022-09-09T13:43:53.251Z,4.72
2022-09-09T13:46:35.229Z,5.82
2022-09-09T13:49:03.964Z,5.70
2022-09-09T13:51:35.813Z,9.00
2022-09-09T13:54:02.293Z,4.90
2022-09-09T13:56:28.721Z,4.25
2022-09-09T13:58:55.281Z,4.97
2022-09-09T14:01:24.293Z,4.40
2022-09-09T14:03:53.950Z,2.95
2022-09-09T14:06:22.966Z,1.92
2022-09-09T14:08:52.687Z,2.33
2022-09-09T14:11:19.367Z,3.17
2022-09-09T14:13:45.972Z,3.53
2022-09-09T14:16:13.153Z,2.55
2022-09-09T14:18:40.122Z,2.65
2022-09-09T14:21:06.641Z,1.63
2022-09-09T14:23:33.344Z,1.88
2022-09-09T14:25:59.839Z,1.55
2022-09-09T14:28:52.006Z,2.05
2022-09-09T14:31:14.411Z,1.52
2022-09-09T14:33:41.438Z,1.50
2022-09-09T14:36:07.962Z,1.60
2022-09-09T14:38:35.402Z,1.67
2022-09-09T14:41:04.354Z,1.77
2022-09-09T14:43:33.681Z,1.52
2022-09-09T14:46:07.411Z,0.88
2022-09-09T14:48:34.662Z,1.83
2022-09-09T14:51:07.747Z,1.60
2022-09-09T14:53:38.509Z,2.17
2022-09-09T14:56:25.571Z,1.98
2022-09-09T14:58:53.981Z,2.63
2022-09-09T15:01:21.351Z,1.23
2022-09-09T15:03:52.277Z,2.53
2022-09-09T15:06:19.111Z,1.80
2022-09-09T15:08:46.378Z,3.30
2022-09-09T15:11:14.024Z,2.80
2022-09-09T15:13:41.038Z,4.00
2022-09-09T15:16:08.484Z,1.80
2022-09-09T15:18:37.238Z,3.65
2022-09-09T15:21:05.914Z,2.22
2022-09-09T15:23:35.849Z,2.55
2022-09-09T15:26:04.668Z,3.70
2022-09-09T15:28:32.527Z,1.42
2022-09-09T15:31:00.837Z,2.35
2022-09-09T15:33:27.315Z,1.85
2022-09-09T15:35:56.673Z,2.50
2022-09-09T15:38:26.328Z,3.30
2022-09-09T15:40:56.383Z,2.85
2022-09-09T15:43:23.148Z,3.28
2022-09-09T15:45:53.529Z,2.92
2022-09-09T15:48:19.958Z,8.15
2022-09-09T15:50:46.361Z,6.00
2022-09-09T15:53:12.859Z,4.85
2022-09-09T15:55:39.262Z,7.22
2022-09-09T15:58:05.740Z,2.78
2022-09-09T16:00:32.226Z,3.90
2022-09-09T16:02:58.729Z,7.50
2022-09-09T16:05:25.708Z,6.53
2022-09-09T16:07:53.286Z,3.25
2022-09-09T16:10:19.673Z,7.55
2022-09-09T16:12:46.107Z,7.43
2022-09-09T16:15:13.581Z,9.50
2022-09-09T16:17:40.030Z,7.10
2022-09-09T16:20:09.329Z,4.10
2022-09-09T16:22:35.723Z,5.57
2022-09-09T16:25:02.195Z,5.93
2022-09-09T16:27:28.641Z,7.00
2022-09-09T16:29:55.096Z,5.68
2022-09-09T16:32:21.472Z,10.50
2022-09-09T16:34:47.911Z,5.53
2022-09-09T16:37:14.343Z,5.97
2022-09-09T16:39:40.814Z,7.05
2022-09-09T16:42:07.338Z,6.80
2022-09-09T16:44:34.180Z,5.97
2022-09-09T16:47:01.373Z,6.80
2022-09-09T16:49:29.309Z,5.18
2022-09-09T16:51:58.267Z,4.25
2022-09-09T16:54:26.328Z,4.63
2022-09-09T16:56:52.749Z,7.30
2022-09-09T16:59:20.430Z,6.15
2022-09-09T17:01:48.387Z,5.13
2022-09-09T17:04:21.237Z,8.45
2022-09-09T17:06:48.530Z,6.97
2022-09-09T17:09:15.026Z,7.05
2022-09-09T17:11:42.242Z,10.45
2022-09-09T17:14:10.266Z,9.70
2022-09-09T17:16:37.123Z,6.65
2022-09-09T17:19:04.590Z,8.77
2022-09-09T17:21:31.774Z,6.82
2022-09-09T17:23:58.345Z,6.20
2022-09-09T17:26:27.539Z,6.35
2022-09-09T17:28:58.702Z,7.68
2022-09-09T17:31:26.820Z,9.23
2022-09-09T17:33:53.704Z,7.90
2022-09-09T17:36:22.755Z,6.88
2022-09-09T17:38:50.028Z,8.95
2022-09-09T17:41:20.888Z,9.93
2022-09-09T17:43:47.745Z,6.95
2022-09-09T17:46:30.819Z,6.53
2022-09-09T17:48:58.385Z,7.47
2022-09-09T17:51:26.910Z,7.60
2022-09-09T17:53:55.704Z,8.32
2022-09-09T17:56:22.963Z,8.93
2022-09-09T17:58:50.272Z,7.55
2022-09-09T18:01:18.719Z,8.23
2022-09-09T18:03:47.412Z,6.68
2022-09-09T18:06:16.281Z,9.65
2022-09-09T18:08:43.409Z,8.13
2022-09-09T18:11:09.874Z,6.35
2022-09-09T18:13:36.304Z,8.18
2022-09-09T18:16:06.913Z,6.13
2022-09-09T18:18:33.675Z,7.90
2022-09-09T18:21:03.973Z,6.15
2022-09-09T18:23:31.048Z,5.68
2022-09-09T18:25:59.007Z,7.50
2022-09-09T18:28:27.127Z,7.40
2022-09-09T18:30:54.007Z,9.68
2022-09-09T18:33:20.438Z,7.53
2022-09-09T18:35:48.294Z,10.05
2022-09-09T18:38:17.266Z,7.88
2022-09-09T18:40:43.929Z,5.88
2022-09-09T18:43:12.812Z,9.38
2022-09-09T18:45:39.358Z,5.38
2022-09-09T18:48:05.815Z,8.77
2022-09-09T18:50:33.783Z,6.97
2022-09-09T18:53:00.194Z,6.65
2022-09-09T18:55:26.801Z,6.82
2022-09-09T18:57:53.307Z,7.97
2022-09-09T19:00:19.722Z,9.95
2022-09-09T19:02:49.287Z,7.65
2022-09-09T19:05:15.709Z,6.55
2022-09-09T19:07:42.115Z,6.88
2022-09-09T19:10:08.684Z,6.78
2022-09-09T19:12:35.524Z,7.45
2022-09-09T19:15:01.988Z,8.23
2022-09-09T19:17:30.365Z,6.00
2022-09-09T19:19:58.200Z,7.22
2022-09-09T19:22:25.995Z,5.50
2022-09-09T19:24:52.615Z,7.93
2022-09-09T19:27:19.033Z,8.45
2022-09-09T19:29:45.476Z,7.85
2022-09-09T19:35:01.448Z,5.50
2022-09-09T19:37:28.234Z,5.57
2022-09-09T19:39:55.332Z,9.65
2022-09-09T19:42:21.768Z,7.13
2022-09-09T19:44:48.182Z,7.88
2022-09-09T19:47:15.658Z,7.88
2022-09-09T19:49:47.218Z,8.85
2022-09-09T19:52:14.518Z,8.10
2022-09-09T19:54:41.017Z,8.75
2022-09-09T19:57:07.592Z,6.40
2022-09-09T19:59:34.111Z,8.40
2022-09-09T20:02:00.698Z,8.40
2022-09-09T20:04:27.399Z,8.02
2022-09-09T20:06:54.993Z,8.68
2022-09-09T20:09:21.868Z,8.02
2022-09-09T20:11:49.169Z,8.48
2022-09-09T20:14:16.383Z,7.97
2022-09-09T20:16:42.984Z,6.65
2022-09-09T20:19:11.089Z,9.30
2022-09-09T20:21:45.275Z,9.07
2022-09-09T20:24:15.020Z,8.77
2022-09-09T20:26:41.721Z,8.63
2022-09-09T20:29:15.282Z,9.43
2022-09-09T20:31:43.637Z,9.35
2022-09-09T20:34:11.625Z,9.15
2022-09-09T20:36:38.804Z,6.85
2022-09-09T20:39:08.436Z,8.95
2022-09-09T20:41:36.206Z,8.38
2022-09-09T20:44:04.374Z,9.90
2022-09-09T20:46:33.151Z,9.35
2022-09-09T20:49:03.040Z,8.55
2022-09-09T20:51:32.776Z,11.93
2022-09-09T20:54:00.440Z,8.05
2022-09-09T20:56:27.474Z,8.52
2022-09-09T20:58:54.165Z,8.27
2022-09-09T21:01:21.292Z,8.82
2022-09-09T21:03:47.952Z,9.52
2022-09-09T21:06:14.972Z,7.05
2022-09-09T21:08:41.577Z,8.57
2022-09-09T21:11:08.083Z,8.13
2022-09-09T21:13:36.924Z,9.60
2022-09-09T21:16:04.776Z,7.93
2022-09-09T21:18:32.336Z,8.38
2022-09-09T21:20:58.768Z,8.50
2022-09-09T21:23:25.181Z,8.70
2022-09-09T21:25:51.936Z,10.10
2022-09-09T21:28:18.441Z,7.45
2022-09-09T21:30:48.079Z,8.50
2022-09-09T21:33:14.968Z,8.55
2022-09-09T21:35:41.735Z,7.35
2022-09-09T21:38:10.816Z,8.48
2022-09-09T21:40:38.217Z,7.47
2022-09-09T21:43:05.700Z,8.73
2022-09-09T21:45:34.506Z,8.60
2022-09-09T21:48:01.068Z,8.32
2022-09-09T21:50:28.666Z,7.47
2022-09-09T21:52:55.447Z,9.25
2022-09-09T21:55:21.929Z,9.73
2022-09-09T21:57:50.345Z,9.27
2022-09-09T22:00:18.308Z,7.90
2022-09-09T22:02:45.185Z,7.57
2022-09-09T22:05:11.829Z,8.90
2022-09-09T22:07:39.450Z,6.13
2022-09-09T22:10:07.164Z,6.47
2022-09-09T22:12:35.029Z,11.48
2022-09-09T22:15:01.441Z,7.53
2022-09-09T22:17:30.667Z,10.35
2022-09-09T22:19:57.472Z,9.95
2022-09-09T22:22:23.986Z,7.28
2022-09-09T22:24:50.413Z,8.13
2022-09-09T22:27:16.871Z,8.30
2022-09-09T22:29:43.294Z,8.38
2022-09-09T22:32:10.016Z,8.25
2022-09-09T22:34:39.047Z,9.15
2022-09-09T22:37:06.019Z,9.43
2022-09-09T22:39:32.542Z,8.02
2022-09-09T22:41:59.182Z,9.50
2022-09-09T22:44:29.791Z,10.30
2022-09-09T22:46:56.415Z,10.23
2022-09-09T22:49:23.625Z,7.95
2022-09-09T22:51:50.104Z,7.72
2022-09-09T22:54:21.634Z,8.43
2022-09-09T22:56:48.645Z,9.90
2022-09-09T22:59:15.885Z,8.18
2022-09-09T23:01:42.867Z,10.95
2022-09-09T23:04:09.706Z,9.50
2022-09-09T23:06:39.896Z,9.45
2022-09-09T23:09:06.337Z,7.00
2022-09-09T23:11:34.049Z,7.03
2022-09-09T23:14:01.423Z,7.45
2022-09-09T23:16:33.739Z,6.35
2022-09-09T23:19:03.207Z,7.60
2022-09-09T23:21:29.849Z,6.53
2022-09-09T23:23:57.076Z,9.10
2022-09-09T23:26:25.242Z,6.50
2022-09-09T23:28:52.533Z,6.57
2022-09-09T23:31:20.655Z,5.82
2022-09-09T23:33:47.842Z,6.20
2022-09-09T23:36:19.134Z,7.82
2022-09-09T23:38:45.857Z,6.57
2022-09-09T23:41:13.397Z,6.75
2022-09-09T23:43:39.965Z,6.93
2022-09-09T23:46:07.259Z,6.38
2022-09-09T23:48:38.198Z,6.75
2022-09-09T23:51:07.876Z,5.50
2022-09-09T23:53:34.290Z,5.60
2022-09-09T23:56:01.051Z,5.25
2022-09-09T23:58:27.434Z,5.28
